createdAt,value
2017-08-15T00:01:08.372Z,5.45
2017-08-15T00:03:36.525Z,5.15
2017-08-15T00:06:04.721Z,5.68
2017-08-15T00:08:32.886Z,5.03
2017-08-15T00:11:01.027Z,4.80
2017-08-15T00:13:29.978Z,5.37
2017-08-15T00:15:58.127Z,5.05
2017-08-15T00:18:26.281Z,5.00
2017-08-15T00:20:54.485Z,5.70
2017-08-15T00:23:22.633Z,4.93
2017-08-15T00:25:50.798Z,5.10
2017-08-15T00:28:19.738Z,5.03
2017-08-15T00:30:47.901Z,5.20
2017-08-15T00:33:16.074Z,5.10
2017-08-15T00:35:44.266Z,4.80
2017-08-15T00:38:12.436Z,5.12
2017-08-15T00:40:40.586Z,5.20
2017-08-15T00:43:08.767Z,5.22
2017-08-15T00:45:36.929Z,5.20
2017-08-15T00:48:05.092Z,4.70
2017-08-15T00:50:33.266Z,4.80
2017-08-15T00:53:01.413Z,4.72
2017-08-15T00:55:29.562Z,5.20
2017-08-15T00:57:57.738Z,4.93
2017-08-15T01:00:25.918Z,4.95
2017-08-15T01:02:54.088Z,5.43
2017-08-15T01:05:22.285Z,5.10
2017-08-15T01:07:50.432Z,5.72
2017-08-15T01:10:18.597Z,5.35
2017-08-15T01:12:46.773Z,5.37
2017-08-15T01:15:14.919Z,5.72
2017-08-15T01:17:43.071Z,5.57
2017-08-15T01:20:12.032Z,5.30
2017-08-15T01:22:40.176Z,5.95
2017-08-15T01:25:08.683Z,4.90
2017-08-15T01:27:36.871Z,5.40
2017-08-15T01:30:05.023Z,5.47
2017-08-15T01:32:33.166Z,6.00
2017-08-15T01:35:01.344Z,5.80
2017-08-15T01:37:29.492Z,6.25
2017-08-15T01:39:57.634Z,5.70
2017-08-15T01:42:25.813Z,5.90
2017-08-15T01:44:53.965Z,6.28
2017-08-15T01:47:22.133Z,5.93
2017-08-15T01:49:50.307Z,6.30
2017-08-15T01:52:18.472Z,5.55
2017-08-15T01:54:46.632Z,6.15
2017-08-15T01:57:15.128Z,6.47
2017-08-15T01:59:43.291Z,5.85
2017-08-15T02:02:11.452Z,6.20
2017-08-15T02:04:39.626Z,6.40
2017-08-15T02:07:07.785Z,6.12
2017-08-15T02:09:36.061Z,6.20
2017-08-15T02:12:04.236Z,6.20
2017-08-15T02:14:32.377Z,6.30
2017-08-15T02:17:00.541Z,6.05
2017-08-15T02:19:35.251Z,5.60
2017-08-15T02:22:03.397Z,6.75
2017-08-15T02:24:31.559Z,5.68
2017-08-15T02:26:59.735Z,6.25
2017-08-15T02:29:27.896Z,5.37
2017-08-15T02:31:56.057Z,5.87
2017-08-15T02:34:24.233Z,5.95
2017-08-15T02:36:52.382Z,5.28
2017-08-15T02:39:21.298Z,5.68
2017-08-15T02:41:49.470Z,5.85
2017-08-15T02:44:17.621Z,5.97
2017-08-15T02:46:46.539Z,6.37
2017-08-15T02:49:14.721Z,5.85
2017-08-15T02:51:42.868Z,6.15
2017-08-15T02:54:11.810Z,5.78
2017-08-15T02:56:40.005Z,5.65
2017-08-15T02:59:08.156Z,5.80
2017-08-15T03:01:36.325Z,6.03
2017-08-15T03:04:04.523Z,5.70
2017-08-15T03:06:32.672Z,5.47
2017-08-15T03:09:00.838Z,5.82
2017-08-15T03:11:29.017Z,5.62
2017-08-15T03:13:57.182Z,5.40
2017-08-15T03:16:25.348Z,5.70
2017-08-15T03:18:54.394Z,6.32
2017-08-15T03:21:22.538Z,6.07
2017-08-15T03:23:50.696Z,5.97
2017-08-15T03:26:18.886Z,6.32
2017-08-15T03:28:47.049Z,5.95
2017-08-15T03:31:15.218Z,6.72
2017-08-15T03:33:43.410Z,6.43
2017-08-15T03:36:11.555Z,6.20
2017-08-15T03:38:39.733Z,6.68
2017-08-15T03:41:07.914Z,6.43
2017-08-15T03:43:36.081Z,5.90
2017-08-15T03:46:04.292Z,6.68
2017-08-15T03:48:32.471Z,6.80
2017-08-15T03:51:00.618Z,6.40
2017-08-15T03:53:28.763Z,6.75
2017-08-15T03:55:57.724Z,6.72
2017-08-15T03:58:25.871Z,7.28
2017-08-15T04:00:54.014Z,6.20
2017-08-15T04:03:22.955Z,7.15
2017-08-15T04:05:51.100Z,6.80
2017-08-15T04:08:19.245Z,7.18
2017-08-15T04:10:48.205Z,6.93
2017-08-15T04:13:16.377Z,7.22
2017-08-15T04:15:44.523Z,7.20
2017-08-15T04:18:12.704Z,7.00
2017-08-15T04:20:40.873Z,7.03
2017-08-15T04:23:09.014Z,7.20
2017-08-15T04:25:37.951Z,7.15
2017-08-15T04:28:06.445Z,6.72
2017-08-15T04:30:34.650Z,6.95
2017-08-15T04:33:02.841Z,6.55
2017-08-15T04:35:31.753Z,7.10
2017-08-15T04:37:59.897Z,6.65
2017-08-15T04:40:28.838Z,7.53
2017-08-15T04:42:57.010Z,6.90
2017-08-15T04:45:25.173Z,7.15
2017-08-15T04:47:53.382Z,6.97
2017-08-15T04:50:21.546Z,7.35
2017-08-15T04:52:49.689Z,7.70
2017-08-15T04:55:17.876Z,6.85
2017-08-15T04:57:46.048Z,6.97
2017-08-15T05:00:14.212Z,7.30
2017-08-15T05:02:42.403Z,7.35
2017-08-15T05:05:10.543Z,7.43
2017-08-15T05:07:38.688Z,7.07
2017-08-15T05:10:07.673Z,6.90
2017-08-15T05:12:35.843Z,7.15
2017-08-15T05:15:04.008Z,7.68
2017-08-15T05:17:32.215Z,7.95
2017-08-15T05:20:00.376Z,8.07
2017-08-15T05:22:28.523Z,7.45
2017-08-15T05:24:56.716Z,7.22
2017-08-15T05:27:24.862Z,7.53
2017-08-15T05:29:53.028Z,6.75
2017-08-15T05:32:21.235Z,7.03
2017-08-15T05:34:49.428Z,8.20
2017-08-15T05:37:17.575Z,8.13
2017-08-15T05:39:45.748Z,8.23
2017-08-15T05:42:13.937Z,8.60
2017-08-15T05:44:42.087Z,7.07
2017-08-15T05:47:10.375Z,7.80
2017-08-15T05:49:38.521Z,7.45
2017-08-15T05:52:06.666Z,7.65
2017-08-15T05:54:34.841Z,8.02
2017-08-15T05:57:03.773Z,7.68
2017-08-15T05:59:31.946Z,7.40
2017-08-15T06:02:00.126Z,8.07
2017-08-15T06:04:28.284Z,8.10
2017-08-15T06:06:56.446Z,7.43
2017-08-15T06:09:25.386Z,8.00
2017-08-15T06:11:53.527Z,8.32
2017-08-15T06:14:21.671Z,7.87
2017-08-15T06:16:50.610Z,7.80
2017-08-15T06:19:18.753Z,6.40
2017-08-15T06:21:47.666Z,7.72
2017-08-15T06:24:15.834Z,7.85
2017-08-15T06:26:43.994Z,7.35
2017-08-15T06:29:12.906Z,8.32
2017-08-15T06:31:41.105Z,7.00
2017-08-15T06:34:09.254Z,7.60
2017-08-15T06:36:37.424Z,7.10
2017-08-15T06:39:05.623Z,6.90
2017-08-15T06:41:33.789Z,7.35
2017-08-15T06:44:02.299Z,7.53
2017-08-15T06:46:30.475Z,7.35
2017-08-15T06:48:58.646Z,6.70
2017-08-15T06:51:26.812Z,7.53
2017-08-15T06:53:54.985Z,6.93
2017-08-15T06:56:23.151Z,7.50
2017-08-15T06:58:51.303Z,7.30
2017-08-15T07:01:20.256Z,6.93
2017-08-15T07:03:48.404Z,6.47
2017-08-15T07:06:16.559Z,6.87
2017-08-15T07:08:45.498Z,8.05
2017-08-15T07:11:13.645Z,6.65
2017-08-15T07:13:41.812Z,6.72
2017-08-15T07:16:09.986Z,8.05
2017-08-15T07:18:38.130Z,6.57
2017-08-15T07:21:06.270Z,6.00
2017-08-15T07:23:34.464Z,8.25
2017-08-15T07:26:02.629Z,6.70
2017-08-15T07:28:30.798Z,7.15
2017-08-15T07:30:58.981Z,6.80
2017-08-15T07:33:27.145Z,7.25
2017-08-15T07:35:55.286Z,6.65
2017-08-15T07:38:23.472Z,7.00
2017-08-15T07:40:51.631Z,7.47
2017-08-15T07:43:19.774Z,7.55
2017-08-15T07:45:47.998Z,6.65
2017-08-15T07:48:16.206Z,7.05
2017-08-15T07:50:44.372Z,7.55
2017-08-15T07:53:12.562Z,7.25
2017-08-15T07:55:40.733Z,7.47
2017-08-15T07:58:08.908Z,6.90
2017-08-15T08:00:37.470Z,6.68
2017-08-15T08:03:05.636Z,6.50
2017-08-15T08:05:33.786Z,6.43
2017-08-15T08:08:01.992Z,6.60
2017-08-15T08:10:30.161Z,6.25
2017-08-15T08:12:58.339Z,6.78
2017-08-15T08:15:26.534Z,6.20
2017-08-15T08:17:54.690Z,6.93
2017-08-15T08:20:22.837Z,6.00
2017-08-15T08:22:51.033Z,7.30
2017-08-15T08:25:19.196Z,6.07
2017-08-15T08:27:47.360Z,5.90
2017-08-15T08:30:15.542Z,6.70
2017-08-15T08:32:43.696Z,5.80
2017-08-15T08:35:11.876Z,6.03
2017-08-15T08:37:40.069Z,5.77
2017-08-15T08:40:08.221Z,6.03
2017-08-15T08:42:36.365Z,5.60
2017-08-15T08:45:04.563Z,6.13
2017-08-15T08:47:32.714Z,5.80
2017-08-15T08:50:00.867Z,5.90
2017-08-15T08:52:29.043Z,6.70
2017-08-15T08:54:57.182Z,5.70
2017-08-15T08:57:25.345Z,5.60
2017-08-15T08:59:53.552Z,5.87
2017-08-15T09:02:21.713Z,5.50
2017-08-15T09:04:49.854Z,6.10
2017-08-15T09:07:18.808Z,5.40
2017-08-15T09:09:46.972Z,5.50
2017-08-15T09:12:15.137Z,5.70
2017-08-15T09:14:43.330Z,5.57
2017-08-15T09:17:11.490Z,5.93
2017-08-15T09:19:39.649Z,5.67
2017-08-15T09:22:07.818Z,6.20
2017-08-15T09:24:35.976Z,5.53
2017-08-15T09:27:04.141Z,6.00
2017-08-15T09:29:37.935Z,5.90
2017-08-15T09:32:06.886Z,6.00
2017-08-15T09:34:35.080Z,5.43
2017-08-15T09:37:03.272Z,5.97
2017-08-15T09:39:31.418Z,5.33
2017-08-15T09:41:59.565Z,5.70
2017-08-15T09:44:27.758Z,6.00
2017-08-15T09:46:55.918Z,6.40
2017-08-15T09:49:24.070Z,5.77
2017-08-15T09:51:52.246Z,5.30
2017-08-15T09:54:20.394Z,4.90
2017-08-15T09:56:48.563Z,5.50
2017-08-15T09:59:16.750Z,5.30
2017-08-15T10:01:45.691Z,5.17
2017-08-15T10:04:14.433Z,5.30
2017-08-15T10:06:43.394Z,5.17
2017-08-15T10:09:11.561Z,5.03
2017-08-15T10:11:39.717Z,5.00
2017-08-15T10:14:07.891Z,4.97
2017-08-15T10:16:36.042Z,4.77
2017-08-15T10:19:04.729Z,5.20
2017-08-15T10:21:32.920Z,5.50
2017-08-15T10:24:01.081Z,5.30
2017-08-15T10:26:29.246Z,5.40
2017-08-15T10:28:58.207Z,5.10
2017-08-15T10:31:26.673Z,4.83
2017-08-15T10:33:54.885Z,5.50
2017-08-15T10:36:23.822Z,5.30
2017-08-15T10:38:51.990Z,4.70
2017-08-15T10:41:20.194Z,5.47
2017-08-15T10:43:48.391Z,4.97
2017-08-15T10:46:16.537Z,5.20
2017-08-15T10:48:44.677Z,4.90
2017-08-15T10:51:12.923Z,5.33
2017-08-15T10:53:41.853Z,5.43
2017-08-15T10:56:10.000Z,5.53
2017-08-15T10:58:38.972Z,5.23
2017-08-15T11:01:07.124Z,5.60
2017-08-15T11:03:35.288Z,5.60
2017-08-15T11:06:03.467Z,5.13
2017-08-15T11:08:31.610Z,5.70
2017-08-15T11:10:59.754Z,6.13
2017-08-15T11:13:28.694Z,5.20
2017-08-15T11:15:56.841Z,4.70
2017-08-15T11:18:25.010Z,5.80
2017-08-15T11:20:53.196Z,5.30
2017-08-15T11:23:21.337Z,5.60
2017-08-15T11:25:49.486Z,5.43
2017-08-15T11:28:17.676Z,5.10
2017-08-15T11:30:45.839Z,5.20
2017-08-15T11:33:13.987Z,5.50
2017-08-15T11:35:42.168Z,6.10
2017-08-15T11:38:10.310Z,5.67
2017-08-15T11:40:38.501Z,5.53
2017-08-15T11:43:06.702Z,6.53
2017-08-15T11:45:34.848Z,6.27
2017-08-15T11:48:03.019Z,6.17
2017-08-15T11:50:31.211Z,5.53
2017-08-15T11:52:59.362Z,5.07
2017-08-15T11:55:27.507Z,5.77
2017-08-15T11:57:55.957Z,5.00
2017-08-15T12:00:24.161Z,5.77
2017-08-15T12:02:52.306Z,5.67
2017-08-15T12:05:20.518Z,5.63
2017-08-15T12:07:49.465Z,5.70
2017-08-15T12:10:17.608Z,5.23
2017-08-15T12:12:45.803Z,5.23
2017-08-15T12:15:14.200Z,5.30
2017-08-15T12:17:42.347Z,5.70
2017-08-15T12:20:10.553Z,5.67
2017-08-15T12:22:38.693Z,5.53
2017-08-15T12:25:06.857Z,6.50
2017-08-15T12:27:35.032Z,5.60
2017-08-15T12:30:03.177Z,6.10
2017-08-15T12:32:31.329Z,6.30
2017-08-15T12:34:59.503Z,6.00
2017-08-15T12:37:27.666Z,5.70
2017-08-15T12:39:55.836Z,5.23
2017-08-15T12:42:24.046Z,5.90
2017-08-15T12:44:52.191Z,6.03
2017-08-15T12:47:20.363Z,6.50
2017-08-15T12:49:48.540Z,6.40
2017-08-15T12:52:16.716Z,5.80
2017-08-15T12:54:44.875Z,6.47
2017-08-15T12:57:13.073Z,6.10
2017-08-15T12:59:41.224Z,6.13
2017-08-15T13:02:09.414Z,5.30
2017-08-15T13:04:37.657Z,6.40
2017-08-15T13:07:05.821Z,6.33
2017-08-15T13:09:33.989Z,5.97
2017-08-15T13:12:02.192Z,6.27
2017-08-15T13:14:30.342Z,6.57
2017-08-15T13:16:58.487Z,6.90
2017-08-15T13:19:26.683Z,6.10
2017-08-15T13:21:54.854Z,6.60
2017-08-15T13:24:23.006Z,5.57
2017-08-15T13:26:51.211Z,6.40
2017-08-15T13:29:19.377Z,6.47
2017-08-15T13:31:47.541Z,6.93
2017-08-15T13:34:16.503Z,6.50
2017-08-15T13:36:44.670Z,7.87
2017-08-15T13:39:12.839Z,7.00
2017-08-15T13:41:41.029Z,7.60
2017-08-15T13:44:09.191Z,7.03
2017-08-15T13:46:37.353Z,7.27
2017-08-15T13:49:05.553Z,6.70
2017-08-15T13:51:33.719Z,7.10
2017-08-15T13:54:01.880Z,6.30
2017-08-15T13:56:30.066Z,6.03
2017-08-15T13:58:58.218Z,6.40
2017-08-15T14:01:26.366Z,5.83
2017-08-15T14:03:54.567Z,5.30
2017-08-15T14:06:22.744Z,5.37
2017-08-15T14:08:50.898Z,5.67
2017-08-15T14:11:19.078Z,5.50
2017-08-15T14:13:47.246Z,5.10
2017-08-15T14:16:15.424Z,5.40
2017-08-15T14:18:43.636Z,6.10
2017-08-15T14:21:11.785Z,6.07
2017-08-15T14:23:39.961Z,5.50
2017-08-15T14:26:08.156Z,5.17
2017-08-15T14:28:36.321Z,4.97
2017-08-15T14:31:04.473Z,5.30
2017-08-15T14:33:32.642Z,5.13
2017-08-15T14:36:00.796Z,5.63
2017-08-15T14:38:29.730Z,5.50
2017-08-15T14:40:57.928Z,6.07
2017-08-15T14:43:26.096Z,5.33
2017-08-15T14:45:54.269Z,5.57
2017-08-15T14:48:22.465Z,5.67
2017-08-15T14:50:50.632Z,5.37
2017-08-15T14:53:18.799Z,5.40
2017-08-15T14:55:46.981Z,5.30
2017-08-15T14:58:15.146Z,5.40
2017-08-15T15:00:43.340Z,6.00
2017-08-15T15:03:11.547Z,6.50
2017-08-15T15:05:40.458Z,5.50
2017-08-15T15:08:08.612Z,6.40
2017-08-15T15:10:36.818Z,5.57
2017-08-15T15:13:04.964Z,5.80
2017-08-15T15:15:33.908Z,5.40
2017-08-15T15:18:02.112Z,6.10
2017-08-15T15:20:30.271Z,5.50
2017-08-15T15:22:58.422Z,5.23
2017-08-15T15:25:26.611Z,5.95
2017-08-15T15:27:54.778Z,6.00
2017-08-15T15:30:22.952Z,5.70
2017-08-15T15:32:51.153Z,5.73
2017-08-15T15:35:19.619Z,6.03
2017-08-15T15:37:47.787Z,5.50
2017-08-15T15:40:15.964Z,5.73
2017-08-15T15:42:44.142Z,5.53
2017-08-15T15:45:12.334Z,5.40
2017-08-15T15:47:40.508Z,5.10
2017-08-15T15:50:08.655Z,5.20
2017-08-15T15:52:36.802Z,5.67
2017-08-15T15:55:04.996Z,5.47
2017-08-15T15:57:33.162Z,4.93
2017-08-15T16:00:01.306Z,4.50
2017-08-15T16:02:30.273Z,6.50
2017-08-15T16:04:58.443Z,5.10
2017-08-15T16:07:26.613Z,4.60
2017-08-15T16:09:54.785Z,5.20
2017-08-15T16:12:22.945Z,5.00
2017-08-15T16:14:51.112Z,4.90
2017-08-15T16:17:19.286Z,5.20
2017-08-15T16:19:47.464Z,4.80
2017-08-15T16:22:15.613Z,4.40
2017-08-15T16:24:43.806Z,5.27
2017-08-15T16:27:11.955Z,4.70
2017-08-15T16:29:40.110Z,5.00
2017-08-15T16:32:09.060Z,5.43
2017-08-15T16:34:37.206Z,4.70
2017-08-15T16:37:05.358Z,5.40
2017-08-15T16:39:33.558Z,4.90
2017-08-15T16:42:01.731Z,4.60
2017-08-15T16:44:29.879Z,5.43
2017-08-15T16:46:58.840Z,4.83
2017-08-15T16:49:27.005Z,5.20
2017-08-15T16:51:55.154Z,4.53
2017-08-15T16:54:24.101Z,5.13
2017-08-15T16:56:52.251Z,4.70
2017-08-15T16:59:20.441Z,5.30
2017-08-15T17:01:49.605Z,6.47
2017-08-15T17:04:17.765Z,6.10
2017-08-15T17:06:45.946Z,6.13
2017-08-15T17:09:14.914Z,5.70
2017-08-15T17:11:43.085Z,6.07
2017-08-15T17:14:11.260Z,6.32
2017-08-15T17:16:39.450Z,6.30
2017-08-15T17:19:07.604Z,5.07
2017-08-15T17:21:35.779Z,5.70
2017-08-15T17:24:03.977Z,5.72
2017-08-15T17:26:32.917Z,5.37
2017-08-15T17:29:01.079Z,5.70
2017-08-15T17:31:29.262Z,4.62
2017-08-15T17:33:57.436Z,5.32
2017-08-15T17:36:26.558Z,4.72
2017-08-15T17:38:54.747Z,5.22
2017-08-15T17:41:22.906Z,4.83
2017-08-15T17:43:51.089Z,5.87
2017-08-15T17:46:19.284Z,5.28
2017-08-15T17:48:47.437Z,6.70
2017-08-15T17:51:16.241Z,6.55
2017-08-15T17:53:44.430Z,7.90
2017-08-15T17:56:13.367Z,7.85
2017-08-15T17:58:41.546Z,6.87
2017-08-15T18:01:09.749Z,8.27
2017-08-15T18:03:37.922Z,7.20
2017-08-15T18:06:06.066Z,6.85
2017-08-15T18:08:34.244Z,6.30
2017-08-15T18:11:02.989Z,7.03
2017-08-15T18:13:31.920Z,6.00
2017-08-15T18:16:00.093Z,6.20
2017-08-15T18:18:28.257Z,6.03
2017-08-15T18:20:56.406Z,5.12
2017-08-15T18:23:26.146Z,5.07
2017-08-15T18:25:54.313Z,6.25
2017-08-15T18:28:22.727Z,7.35
2017-08-15T18:30:51.436Z,7.55
2017-08-15T18:33:19.658Z,6.80
2017-08-15T18:35:47.804Z,7.50
2017-08-15T18:38:15.981Z,6.30
2017-08-15T18:40:44.900Z,5.78
2017-08-15T18:43:13.074Z,7.18
2017-08-15T18:45:41.364Z,6.68
2017-08-15T18:48:09.527Z,6.32
2017-08-15T18:50:37.695Z,6.32
2017-08-15T18:53:05.886Z,6.00
2017-08-15T18:55:34.060Z,5.60
2017-08-15T18:58:02.206Z,7.53
2017-08-15T19:00:31.155Z,5.85
2017-08-15T19:03:02.584Z,7.03
2017-08-15T19:05:30.729Z,6.25
2017-08-15T19:07:59.689Z,6.40
2017-08-15T19:10:27.857Z,6.90
2017-08-15T19:12:56.097Z,6.30
2017-08-15T19:15:24.300Z,5.80
2017-08-15T19:17:52.490Z,6.70
2017-08-15T19:20:20.749Z,6.75
2017-08-15T19:22:49.033Z,8.30
2017-08-15T19:25:17.190Z,7.82
2017-08-15T19:27:45.360Z,7.15
2017-08-15T19:30:13.531Z,6.62
2017-08-15T19:32:41.674Z,6.62
2017-08-15T19:35:10.587Z,7.25
2017-08-15T19:37:38.796Z,5.75
2017-08-15T19:40:06.962Z,6.93
2017-08-15T19:42:35.129Z,6.28
2017-08-15T19:45:03.332Z,6.03
2017-08-15T19:47:31.483Z,6.65
2017-08-15T19:49:59.649Z,6.43
2017-08-15T19:52:27.820Z,6.43
2017-08-15T19:54:55.990Z,7.37
2017-08-15T19:57:24.130Z,7.12
2017-08-15T19:59:53.511Z,7.85
2017-08-15T20:02:21.679Z,7.30
2017-08-15T20:04:49.823Z,8.38
2017-08-15T20:07:18.007Z,6.75
2017-08-15T20:09:46.173Z,7.05
2017-08-15T20:12:14.337Z,6.53
2017-08-15T20:14:42.532Z,6.90
2017-08-15T20:17:10.705Z,6.10
2017-08-15T20:19:38.880Z,6.60
2017-08-15T20:22:07.073Z,7.93
2017-08-15T20:24:35.221Z,6.85
2017-08-15T20:27:03.370Z,6.68
2017-08-15T20:29:31.571Z,6.93
2017-08-15T20:31:59.733Z,7.10
2017-08-15T20:34:27.896Z,6.32
2017-08-15T20:36:56.071Z,7.03
2017-08-15T20:39:24.233Z,6.93
2017-08-15T20:41:53.168Z,6.30
2017-08-15T20:44:21.357Z,5.43
2017-08-15T20:46:49.520Z,5.50
2017-08-15T20:49:19.608Z,5.60
2017-08-15T20:51:47.837Z,5.10
2017-08-15T20:54:17.548Z,6.15
2017-08-15T20:56:45.723Z,5.82
2017-08-15T20:59:13.912Z,6.47
2017-08-15T21:01:42.072Z,6.43
2017-08-15T21:04:10.238Z,6.55
2017-08-15T21:06:38.420Z,7.10
2017-08-15T21:09:06.568Z,6.72
2017-08-15T21:11:35.489Z,6.55
2017-08-15T21:14:03.665Z,7.12
2017-08-15T21:16:31.826Z,5.82
2017-08-15T21:18:59.990Z,6.65
2017-08-15T21:21:28.934Z,6.60
2017-08-15T21:23:57.101Z,7.07
2017-08-15T21:26:25.282Z,6.95
2017-08-15T21:28:53.504Z,6.70
2017-08-15T21:31:22.428Z,7.07
2017-08-15T21:33:50.580Z,7.60
2017-08-15T21:36:18.760Z,7.07
2017-08-15T21:38:46.926Z,6.57
2017-08-15T21:41:15.094Z,7.22
2017-08-15T21:43:44.049Z,7.05
2017-08-15T21:46:12.194Z,6.75
2017-08-15T21:48:40.338Z,7.90
2017-08-15T21:51:09.296Z,7.15
2017-08-15T21:53:37.470Z,6.25
2017-08-15T21:56:05.631Z,6.90
2017-08-15T21:58:33.802Z,6.97
2017-08-15T22:01:07.555Z,7.03
2017-08-15T22:03:35.734Z,6.93
2017-08-15T22:06:03.898Z,7.05
2017-08-15T22:08:32.831Z,6.53
2017-08-15T22:11:01.020Z,6.85
2017-08-15T22:13:29.182Z,7.07
2017-08-15T22:15:57.326Z,7.65
2017-08-15T22:18:26.266Z,7.35
2017-08-15T22:20:54.411Z,7.20
2017-08-15T22:23:22.577Z,7.25
2017-08-15T22:25:50.765Z,7.03
2017-08-15T22:28:18.910Z,7.65
2017-08-15T22:30:47.819Z,8.13
2017-08-15T22:33:16.021Z,6.70
2017-08-15T22:35:44.173Z,7.22
2017-08-15T22:38:12.320Z,6.75
2017-08-15T22:40:40.491Z,7.45
2017-08-15T22:43:09.433Z,7.00
2017-08-15T22:45:37.597Z,7.07
2017-08-15T22:48:05.774Z,6.45
2017-08-15T22:50:33.918Z,6.03
2017-08-15T22:53:02.846Z,6.03
2017-08-15T22:55:31.036Z,6.43
2017-08-15T22:57:59.198Z,6.68
2017-08-15T23:00:27.342Z,6.20
2017-08-15T23:02:55.513Z,5.62
2017-08-15T23:05:23.664Z,5.95
2017-08-15T23:07:51.806Z,6.00
2017-08-15T23:10:19.973Z,6.18
2017-08-15T23:12:48.143Z,6.35
2017-08-15T23:15:16.306Z,5.75
2017-08-15T23:17:44.517Z,5.80
2017-08-15T23:20:13.191Z,5.80
2017-08-15T23:22:42.147Z,5.80
2017-08-15T23:25:10.318Z,6.40
2017-08-15T23:27:38.491Z,5.75
2017-08-15T23:30:06.638Z,6.62
2017-08-15T23:32:35.609Z,6.90
2017-08-15T23:35:03.763Z,6.95
2017-08-15T23:37:31.914Z,6.82
2017-08-15T23:40:00.085Z,7.37
2017-08-15T23:42:28.261Z,8.32
2017-08-15T23:44:56.431Z,9.10
2017-08-15T23:47:24.685Z,10.30
2017-08-15T23:49:53.667Z,10.68
2017-08-15T23:52:22.647Z,11.40
2017-08-15T23:54:50.879Z,11.27
2017-08-15T23:57:19.037Z,10.82
2017-08-15T23:59:47.209Z,12.13
